메인 페이지
METAR-TAF:

METAR-TAF

공항 :

Vamdrup

콜링, 덴마크

위도: 55-26N, 경도: 009-20E, 고도: 44m

현재 날씨관측

예보는 15분 전, 04:20시(UTC)에 발표되었습니다.
8kt
온도 17°C
습도 77%
기압 1008 hPa

METAR: EKVD 210420Z AUTO 09008KT //// ///////// 17/13 Q1008

시각: 06:35 (04:35 UTC)

예보

예보는 19 시간 39분 전, 08:56시(UTC)에 발표되었습니다.
예보 대상 시간: 20일 09시부터 20일 15시까지 (UTC)
동남동7kt
시정 10km 이상
1500m 미만 상공 구름 및 적란운 없음

TAF: EKVD 200856Z 2009/2015 12007KT CAVOK

4,000개 이상의 공항 관측 자료 및 예보 (METAR 및 TAF 보고).

지도상에서 검색 가능한 기상관측소가 노란 점과 빨간 점으로 표시되어 있습니다.

기상관측소 명을 보려면 표시 위로 마우스를 이동하세요.

날씨 관측과 예보를 보려면 클릭하세요.

지도 변경 : 확대하려면 엑스 표시가 있는 녹색 버튼, 축소하려면 빼기 표시가 있는 녹색 버튼, 다음 페이지의 지도를 보려면 녹색 화살표를 클릭하세요.


METAR-TAF: